createdAt,value
2023-05-24T00:02:09.361Z,2.08
2023-05-24T00:04:36.065Z,1.25
2023-05-24T00:07:02.732Z,1.52
2023-05-24T00:09:30.559Z,1.88
2023-05-24T00:11:57.179Z,1.33
2023-05-24T00:14:23.950Z,1.48
2023-05-24T00:16:50.561Z,1.92
2023-05-24T00:19:17.169Z,1.58
2023-05-24T00:21:45.166Z,1.30
2023-05-24T00:24:11.995Z,1.63
2023-05-24T00:26:38.831Z,1.50
2023-05-24T00:29:05.697Z,1.75
2023-05-24T00:31:32.674Z,1.67
2023-05-24T00:33:59.386Z,1.30
2023-05-24T00:36:25.987Z,1.65
2023-05-24T00:38:52.606Z,1.48
2023-05-24T00:41:19.376Z,1.67
2023-05-24T00:43:45.890Z,1.55
2023-05-24T00:46:18.773Z,1.80
2023-05-24T00:48:46.419Z,2.20
2023-05-24T00:51:13.519Z,1.60
2023-05-24T00:53:42.016Z,1.60
2023-05-24T00:56:08.972Z,1.77
2023-05-24T00:58:35.808Z,1.40
2023-05-24T01:01:03.557Z,1.40
2023-05-24T01:03:30.439Z,1.80
2023-05-24T01:05:58.639Z,1.95
2023-05-24T01:08:40.483Z,1.77
2023-05-24T01:13:58.834Z,1.63
2023-05-24T01:17:14.127Z,1.60
2023-05-24T01:19:49.707Z,1.95
2023-05-24T01:22:35.157Z,1.70
2023-05-24T01:25:04.868Z,1.85
2023-05-24T01:27:33.820Z,1.88
2023-05-24T01:30:01.855Z,1.70
2023-05-24T01:32:29.091Z,2.00
2023-05-24T01:34:55.774Z,1.52
2023-05-24T01:37:22.521Z,1.88
2023-05-24T01:39:49.752Z,1.80
2023-05-24T01:42:43.640Z,2.00
2023-05-24T01:45:15.794Z,1.83
2023-05-24T01:48:08.739Z,1.27
2023-05-24T01:50:43.284Z,2.10
2023-05-24T01:53:13.623Z,2.00
2023-05-24T01:55:40.772Z,1.58
2023-05-24T01:58:09.832Z,1.38
2023-05-24T02:00:38.868Z,1.80
2023-05-24T02:03:06.554Z,2.10
2023-05-24T02:05:33.206Z,2.47
2023-05-24T02:07:59.759Z,1.48
2023-05-24T02:10:26.428Z,2.03
2023-05-24T02:12:52.971Z,1.92
2023-05-24T02:15:19.520Z,1.67
2023-05-24T02:17:46.203Z,1.70
2023-05-24T02:20:12.951Z,1.88
2023-05-24T02:22:39.516Z,1.63
2023-05-24T02:25:06.719Z,1.83
2023-05-24T02:27:33.255Z,2.20
2023-05-24T02:29:59.781Z,1.80
2023-05-24T02:32:26.379Z,1.80
2023-05-24T02:34:52.950Z,1.73
2023-05-24T02:37:19.503Z,1.70
2023-05-24T02:39:46.066Z,1.70
2023-05-24T02:42:12.630Z,1.90
2023-05-24T02:44:39.198Z,1.92
2023-05-24T02:47:05.907Z,2.13
2023-05-24T02:49:32.413Z,1.65
2023-05-24T02:51:59.302Z,2.40
2023-05-24T02:54:25.836Z,2.03
2023-05-24T02:56:52.370Z,1.95
2023-05-24T02:59:18.896Z,1.92
2023-05-24T03:01:45.486Z,1.70
2023-05-24T03:04:12.132Z,2.72
2023-05-24T03:06:38.790Z,2.17
2023-05-24T03:09:05.509Z,2.13
2023-05-24T03:11:32.058Z,2.45
2023-05-24T03:13:58.634Z,1.77
2023-05-24T03:16:25.222Z,2.03
2023-05-24T03:18:51.764Z,1.90
2023-05-24T03:21:18.515Z,2.50
2023-05-24T03:23:45.066Z,1.80
2023-05-24T03:26:11.650Z,2.00
2023-05-24T03:28:38.223Z,2.42
2023-05-24T03:31:04.924Z,2.17
2023-05-24T03:33:31.648Z,2.15
2023-05-24T03:35:58.218Z,2.10
2023-05-24T03:38:24.782Z,2.03
2023-05-24T03:40:51.440Z,2.17
2023-05-24T03:43:17.956Z,1.80
2023-05-24T03:45:44.522Z,2.05
2023-05-24T03:48:11.084Z,2.03
2023-05-24T03:50:37.627Z,2.33
2023-05-24T03:53:04.320Z,1.73
2023-05-24T03:55:30.919Z,2.55
2023-05-24T03:57:57.515Z,2.20
2023-05-24T04:00:24.036Z,1.77
2023-05-24T04:02:50.692Z,2.20
2023-05-24T04:05:17.378Z,2.72
2023-05-24T04:07:43.969Z,2.45
2023-05-24T04:10:10.644Z,2.35
2023-05-24T04:12:37.205Z,2.67
2023-05-24T04:15:04.051Z,2.40
2023-05-24T04:17:30.828Z,2.30
2023-05-24T04:19:57.497Z,2.00
2023-05-24T04:22:25.744Z,2.85
2023-05-24T04:24:52.747Z,2.75
2023-05-24T04:27:19.402Z,2.45
2023-05-24T04:29:46.022Z,2.53
2023-05-24T04:32:12.583Z,2.97
2023-05-24T04:34:39.120Z,2.53
2023-05-24T04:37:05.670Z,2.72
2023-05-24T04:39:32.243Z,2.80
2023-05-24T04:41:58.798Z,2.80
2023-05-24T04:44:25.365Z,2.72
2023-05-24T04:46:51.932Z,3.03
2023-05-24T04:49:18.719Z,2.75
2023-05-24T04:51:46.408Z,2.55
2023-05-24T04:54:12.971Z,2.63
2023-05-24T04:56:39.503Z,2.88
2023-05-24T04:59:07.189Z,3.05
2023-05-24T05:01:34.492Z,3.33
2023-05-24T05:04:02.508Z,2.75
2023-05-24T05:06:29.070Z,3.20
2023-05-24T05:08:55.675Z,2.92
2023-05-24T05:11:22.343Z,3.42
2023-05-24T05:13:48.919Z,3.47
2023-05-24T05:16:15.489Z,3.28
2023-05-24T05:18:42.094Z,3.50
2023-05-24T05:21:08.745Z,3.80
2023-05-24T05:23:35.578Z,3.50
2023-05-24T05:26:02.142Z,4.05
2023-05-24T05:28:28.723Z,3.67
2023-05-24T05:30:55.267Z,3.70
2023-05-24T05:33:21.864Z,3.75
2023-05-24T05:35:48.473Z,4.82
2023-05-24T05:38:15.009Z,3.50
2023-05-24T05:40:41.744Z,3.65
2023-05-24T05:43:08.580Z,4.10
2023-05-24T05:45:35.365Z,3.50
2023-05-24T05:48:01.980Z,3.13
2023-05-24T05:50:28.630Z,3.47
2023-05-24T05:52:55.225Z,3.33
2023-05-24T05:55:21.913Z,3.70
2023-05-24T05:57:48.500Z,4.35
2023-05-24T06:00:15.442Z,3.53
2023-05-24T06:02:42.068Z,2.83
2023-05-24T06:05:09.086Z,3.40
2023-05-24T06:07:35.643Z,3.25
2023-05-24T06:10:02.176Z,3.85
2023-05-24T06:12:28.722Z,3.65
2023-05-24T06:14:55.261Z,3.28
2023-05-24T06:17:21.825Z,3.53
2023-05-24T06:19:48.369Z,3.28
2023-05-24T06:22:14.870Z,3.17
2023-05-24T06:24:41.415Z,3.35
2023-05-24T06:27:08.006Z,3.33
2023-05-24T06:29:34.564Z,3.10
2023-05-24T06:32:01.238Z,3.58
2023-05-24T06:34:27.851Z,2.88
2023-05-24T06:36:54.360Z,3.03
2023-05-24T06:39:20.956Z,3.83
2023-05-24T06:41:47.682Z,4.07
2023-05-24T06:44:14.303Z,3.42
2023-05-24T06:46:40.910Z,2.70
2023-05-24T06:49:09.076Z,3.40
2023-05-24T06:51:35.727Z,3.38
2023-05-24T06:54:03.133Z,3.38
2023-05-24T06:56:32.808Z,2.90
2023-05-24T06:58:59.663Z,2.70
2023-05-24T07:01:26.296Z,3.20
2023-05-24T07:03:52.886Z,3.47
2023-05-24T07:06:19.482Z,3.28
2023-05-24T07:08:46.044Z,3.30
2023-05-24T07:11:12.836Z,2.67
2023-05-24T07:13:39.652Z,3.33
2023-05-24T07:16:06.993Z,3.78
2023-05-24T07:18:33.571Z,2.90
2023-05-24T07:21:00.154Z,3.63
2023-05-24T07:23:26.702Z,3.60
2023-05-24T07:25:53.272Z,3.10
2023-05-24T07:28:19.850Z,3.08
2023-05-24T07:30:46.517Z,3.10
2023-05-24T07:33:13.192Z,3.25
2023-05-24T07:35:39.969Z,2.63
2023-05-24T07:38:06.486Z,3.60
2023-05-24T07:40:33.004Z,3.17
2023-05-24T07:42:59.534Z,4.05
2023-05-24T07:45:26.084Z,3.05
2023-05-24T07:47:54.502Z,3.25
2023-05-24T07:50:23.345Z,3.33
2023-05-24T07:52:49.889Z,3.15
2023-05-24T07:55:16.501Z,2.80
2023-05-24T07:57:43.128Z,3.10
2023-05-24T08:00:10.209Z,3.95
2023-05-24T08:02:36.950Z,3.20
2023-05-24T08:05:03.790Z,3.25
2023-05-24T08:07:30.502Z,3.00
2023-05-24T08:09:57.076Z,2.70
2023-05-24T08:12:23.714Z,3.25
2023-05-24T08:14:50.309Z,2.90
2023-05-24T08:17:16.820Z,3.35
2023-05-24T08:19:43.354Z,2.78
2023-05-24T08:22:09.862Z,2.90
2023-05-24T08:24:36.419Z,2.70
2023-05-24T08:27:03.108Z,2.53
2023-05-24T08:29:30.054Z,2.67
2023-05-24T08:31:56.588Z,2.53
2023-05-24T08:34:23.151Z,3.05
2023-05-24T08:36:49.701Z,2.75
2023-05-24T08:39:16.328Z,3.03
2023-05-24T08:41:44.500Z,2.90
2023-05-24T08:44:13.401Z,2.75
2023-05-24T08:46:40.859Z,2.80
2023-05-24T08:49:09.197Z,2.38
2023-05-24T08:51:36.340Z,3.80
2023-05-24T08:54:05.022Z,2.47
2023-05-24T08:56:32.024Z,2.85
2023-05-24T08:58:58.573Z,2.53
2023-05-24T09:01:26.631Z,2.47
2023-05-24T09:03:55.880Z,2.58
2023-05-24T09:06:23.656Z,2.83
2023-05-24T09:08:51.074Z,3.00
2023-05-24T09:11:18.871Z,3.03
2023-05-24T09:13:45.706Z,2.13
2023-05-24T09:16:12.730Z,2.25
2023-05-24T09:18:41.150Z,2.10
2023-05-24T09:21:07.696Z,2.50
2023-05-24T09:23:34.569Z,2.00
2023-05-24T09:26:10.378Z,2.10
2023-05-24T09:28:37.718Z,2.70
2023-05-24T09:31:07.502Z,2.33
2023-05-24T09:33:35.625Z,2.63
2023-05-24T09:36:05.604Z,2.85
2023-05-24T09:38:32.460Z,3.00
2023-05-24T09:41:03.388Z,2.00
2023-05-24T09:43:31.633Z,2.40
2023-05-24T09:45:58.647Z,2.92
2023-05-24T09:48:25.330Z,2.20
2023-05-24T09:51:07.051Z,2.42
2023-05-24T09:53:35.406Z,2.80
2023-05-24T09:56:06.270Z,2.58
2023-05-24T09:58:33.202Z,2.28
2023-05-24T10:01:10.848Z,2.85
2023-05-24T10:03:38.210Z,2.30
2023-05-24T10:06:06.408Z,2.45
2023-05-24T10:08:36.562Z,2.58
2023-05-24T10:11:03.471Z,3.00
2023-05-24T10:13:31.851Z,2.20
2023-05-24T10:15:58.372Z,3.20
2023-05-24T10:18:24.902Z,3.03
2023-05-24T10:20:53.700Z,2.30
2023-05-24T10:23:20.844Z,2.47
2023-05-24T10:25:55.877Z,2.40
2023-05-24T10:28:24.535Z,3.30
2023-05-24T10:31:04.048Z,2.78
2023-05-24T10:33:33.541Z,2.65
2023-05-24T10:36:00.343Z,2.83
2023-05-24T10:38:26.930Z,2.85
2023-05-24T10:40:53.630Z,2.65
2023-05-24T10:43:21.874Z,2.58
2023-05-24T10:45:50.041Z,2.42
2023-05-24T10:48:23.635Z,2.75
2023-05-24T10:50:50.253Z,3.05
2023-05-24T10:53:22.896Z,3.45
2023-05-24T10:56:03.254Z,2.67
2023-05-24T10:58:57.718Z,2.53
2023-05-24T11:01:29.166Z,2.85
2023-05-24T11:04:08.364Z,2.70
2023-05-24T11:06:54.511Z,2.53
2023-05-24T11:09:22.258Z,2.80
2023-05-24T11:11:53.694Z,2.72
2023-05-24T11:14:23.722Z,2.72
2023-05-24T11:16:50.548Z,2.67
2023-05-24T11:19:28.965Z,2.33
2023-05-24T11:21:57.289Z,2.85
2023-05-24T11:24:24.469Z,3.13
2023-05-24T11:26:51.757Z,2.75
2023-05-24T11:29:18.568Z,3.30
2023-05-24T11:31:56.516Z,2.60
2023-05-24T11:34:23.930Z,3.08
2023-05-24T11:36:51.343Z,2.85
2023-05-24T11:39:18.046Z,3.38
2023-05-24T11:41:44.973Z,2.92
2023-05-24T11:44:12.203Z,2.80
2023-05-24T11:46:39.600Z,2.90
2023-05-24T11:49:06.284Z,3.53
2023-05-24T11:51:34.467Z,2.75
2023-05-24T11:54:01.636Z,2.60
2023-05-24T11:56:33.551Z,2.80
2023-05-24T11:59:15.309Z,2.88
2023-05-24T12:04:09.723Z,3.22
2023-05-24T12:06:39.103Z,3.10
2023-05-24T12:09:06.435Z,3.03
2023-05-24T12:11:33.008Z,3.17
2023-05-24T12:13:59.606Z,3.25
2023-05-24T12:16:27.413Z,2.90
2023-05-24T12:19:05.120Z,2.70
2023-05-24T12:21:33.993Z,2.83
2023-05-24T12:24:14.706Z,2.83
2023-05-24T12:26:46.775Z,3.10
2023-05-24T12:29:14.500Z,2.42
2023-05-24T12:31:45.665Z,2.72
2023-05-24T12:34:21.271Z,3.75
2023-05-24T12:36:48.420Z,2.58
2023-05-24T12:39:36.496Z,2.60
2023-05-24T12:42:04.270Z,2.53
2023-05-24T12:44:34.100Z,3.00
2023-05-24T12:47:02.617Z,3.42
2023-05-24T12:49:29.205Z,2.95
2023-05-24T12:51:56.168Z,2.92
2023-05-24T12:54:24.945Z,2.60
2023-05-24T12:56:55.585Z,2.33
2023-05-24T12:59:23.135Z,2.60
2023-05-24T13:01:49.662Z,2.40
2023-05-24T13:04:17.431Z,2.95
2023-05-24T13:06:44.193Z,2.95
2023-05-24T13:09:10.772Z,2.83
2023-05-24T13:11:37.334Z,2.60
2023-05-24T13:14:04.025Z,2.25
2023-05-24T13:16:30.635Z,3.05
2023-05-24T13:18:57.260Z,3.08
2023-05-24T13:21:23.876Z,3.03
2023-05-24T13:23:50.463Z,2.78
2023-05-24T13:26:17.189Z,2.70
2023-05-24T13:28:59.039Z,2.42
2023-05-24T13:31:30.391Z,2.75
2023-05-24T13:33:56.930Z,2.55
2023-05-24T13:36:23.438Z,2.50
2023-05-24T13:38:56.664Z,2.00
2023-05-24T13:41:32.944Z,2.20
2023-05-24T13:43:59.533Z,2.65
2023-05-24T13:46:26.528Z,1.85
2023-05-24T13:48:53.089Z,1.77
2023-05-24T13:51:19.632Z,2.15
2023-05-24T13:53:49.132Z,1.90
2023-05-24T13:56:16.253Z,1.83
2023-05-24T13:58:43.077Z,1.95
2023-05-24T14:01:10.578Z,1.90
2023-05-24T14:03:37.225Z,2.33
2023-05-24T14:06:03.879Z,2.13
2023-05-24T14:08:30.465Z,2.67
2023-05-24T14:10:57.052Z,2.00
2023-05-24T14:15:58.701Z,3.03
2023-05-24T14:18:25.551Z,2.00
2023-05-24T14:20:52.260Z,2.15
2023-05-24T14:23:18.824Z,2.20
2023-05-24T14:25:45.584Z,2.38
2023-05-24T14:28:12.590Z,2.40
2023-05-24T14:30:39.168Z,1.83
2023-05-24T14:33:05.760Z,2.10
2023-05-24T14:35:32.923Z,2.28
2023-05-24T14:37:59.530Z,2.70
2023-05-24T14:40:26.093Z,2.38
2023-05-24T14:42:52.681Z,2.13
2023-05-24T14:45:19.327Z,2.05
2023-05-24T14:47:45.950Z,2.25
2023-05-24T14:50:12.554Z,2.72
2023-05-24T14:52:39.092Z,2.13
2023-05-24T14:55:06.151Z,2.30
2023-05-24T14:57:32.904Z,2.42
2023-05-24T14:59:59.548Z,2.50
2023-05-24T15:02:26.301Z,2.22
2023-05-24T15:04:52.937Z,2.80
2023-05-24T15:07:19.521Z,2.22
2023-05-24T15:09:46.084Z,1.98
2023-05-24T15:12:12.657Z,2.28
2023-05-24T15:14:39.170Z,2.13
2023-05-24T15:17:05.898Z,2.47
2023-05-24T15:19:32.489Z,2.05
2023-05-24T15:22:01.534Z,3.17
2023-05-24T15:24:28.072Z,2.63
2023-05-24T15:26:54.627Z,2.30
2023-05-24T15:29:21.218Z,2.17
2023-05-24T15:31:47.836Z,2.13
2023-05-24T15:34:14.490Z,2.00
2023-05-24T15:36:41.096Z,2.95
2023-05-24T15:39:07.691Z,2.45
2023-05-24T15:41:36.779Z,2.38
2023-05-24T15:44:03.403Z,2.50
2023-05-24T15:46:30.090Z,2.40
2023-05-24T15:48:56.653Z,2.10
2023-05-24T15:52:01.999Z,1.92
2023-05-24T15:54:09.703Z,2.33
2023-05-24T15:56:36.270Z,2.33
2023-05-24T15:59:02.875Z,2.13
2023-05-24T16:01:29.464Z,2.45
2023-05-24T16:03:56.071Z,2.35
2023-05-24T16:06:22.683Z,2.33
2023-05-24T16:08:49.222Z,2.60
2023-05-24T16:11:15.782Z,2.58
2023-05-24T16:13:42.303Z,2.53
2023-05-24T16:16:08.947Z,2.38
2023-05-24T16:18:35.568Z,2.50
2023-05-24T16:21:02.311Z,2.47
2023-05-24T16:23:28.861Z,2.65
2023-05-24T16:25:55.421Z,2.40
2023-05-24T16:28:21.947Z,2.88
2023-05-24T16:30:48.512Z,2.60
2023-05-24T16:33:15.110Z,2.58
2023-05-24T16:35:41.668Z,2.80
2023-05-24T16:38:08.200Z,1.83
2023-05-24T16:40:34.770Z,2.17
2023-05-24T16:43:01.268Z,2.53
2023-05-24T16:45:27.816Z,1.90
2023-05-24T16:47:54.490Z,2.55
2023-05-24T16:50:21.152Z,1.67
2023-05-24T16:52:47.770Z,2.28
2023-05-24T16:55:14.679Z,1.88
2023-05-24T16:57:41.367Z,2.75
2023-05-24T17:00:08.437Z,2.40
2023-05-24T17:02:35.030Z,2.22
2023-05-24T17:05:01.743Z,2.28
2023-05-24T17:07:28.315Z,2.17
2023-05-24T17:09:54.846Z,2.13
2023-05-24T17:12:21.376Z,2.50
2023-05-24T17:14:47.929Z,2.20
2023-05-24T17:17:14.503Z,2.33
2023-05-24T17:19:41.072Z,2.10
2023-05-24T17:22:07.688Z,2.38
2023-05-24T17:24:34.264Z,2.25
2023-05-24T17:27:00.816Z,2.20
2023-05-24T17:29:27.395Z,2.47
2023-05-24T17:31:53.988Z,2.25
2023-05-24T17:34:20.554Z,2.33
2023-05-24T17:36:47.125Z,2.08
2023-05-24T17:39:13.689Z,2.40
2023-05-24T17:41:40.231Z,2.05
2023-05-24T17:44:06.800Z,2.15
2023-05-24T17:46:35.992Z,1.83
2023-05-24T17:49:03.438Z,2.83
2023-05-24T17:51:30.291Z,2.33
2023-05-24T17:53:56.817Z,2.20
2023-05-24T17:56:23.335Z,2.95
2023-05-24T17:58:50.187Z,2.17
2023-05-24T18:01:17.043Z,2.60
2023-05-24T18:03:43.651Z,2.03
2023-05-24T18:06:10.320Z,2.25
2023-05-24T18:08:38.754Z,2.47
2023-05-24T18:11:05.736Z,2.63
2023-05-24T18:13:32.312Z,2.50
2023-05-24T18:15:58.885Z,2.58
2023-05-24T18:18:25.464Z,2.78
2023-05-24T18:20:52.016Z,2.85
2023-05-24T18:23:18.562Z,3.13
2023-05-24T18:25:45.386Z,2.88
2023-05-24T18:28:12.201Z,2.50
2023-05-24T18:30:38.956Z,2.83
2023-05-24T18:33:08.272Z,2.80
2023-05-24T18:38:01.710Z,2.80
2023-05-24T18:40:28.271Z,3.03
2023-05-24T18:42:54.880Z,2.45
2023-05-24T18:45:21.612Z,3.42
2023-05-24T18:47:48.255Z,2.88
2023-05-24T18:50:15.016Z,2.83
2023-05-24T18:52:41.621Z,3.70
2023-05-24T18:55:08.437Z,3.22
2023-05-24T18:57:34.994Z,3.20
2023-05-24T19:00:01.582Z,3.17
2023-05-24T19:02:28.320Z,2.85
2023-05-24T19:04:54.932Z,2.75
2023-05-24T19:07:21.563Z,2.97
2023-05-24T19:09:48.123Z,2.70
2023-05-24T19:12:14.709Z,3.05
2023-05-24T19:14:45.730Z,3.13
2023-05-24T19:17:12.552Z,3.13
2023-05-24T19:19:39.103Z,3.10
2023-05-24T19:22:05.754Z,2.83
2023-05-24T19:24:32.480Z,3.72
2023-05-24T19:26:59.112Z,3.70
2023-05-24T19:29:25.787Z,3.60
2023-05-24T19:31:52.353Z,3.55
2023-05-24T19:34:19.481Z,3.33
2023-05-24T19:36:46.214Z,3.70
2023-05-24T19:39:12.898Z,2.83
2023-05-24T19:41:39.490Z,3.83
2023-05-24T19:44:08.797Z,3.15
2023-05-24T19:46:35.754Z,3.33
2023-05-24T19:49:02.430Z,3.28
2023-05-24T19:51:29.019Z,3.38
2023-05-24T19:53:55.550Z,3.22
2023-05-24T19:56:22.346Z,3.78
2023-05-24T19:58:48.957Z,3.28
2023-05-24T20:01:15.679Z,3.85
2023-05-24T20:03:42.292Z,3.75
2023-05-24T20:06:08.883Z,3.85
2023-05-24T20:08:35.389Z,3.67
2023-05-24T20:11:02.011Z,3.90
2023-05-24T20:13:28.534Z,3.85
2023-05-24T20:15:56.238Z,3.55
2023-05-24T20:18:22.884Z,3.90
2023-05-24T20:20:49.526Z,3.80
2023-05-24T20:23:16.089Z,3.50
2023-05-24T20:25:42.900Z,3.63
2023-05-24T20:28:21.655Z,3.97
2023-05-24T20:30:52.586Z,4.03
2023-05-24T20:33:19.168Z,4.30
2023-05-24T20:35:45.963Z,4.10
2023-05-24T20:38:12.839Z,4.05
2023-05-24T20:40:39.524Z,4.60
2023-05-24T20:43:06.036Z,3.85
2023-05-24T20:45:32.642Z,3.90
2023-05-24T20:47:59.342Z,4.55
2023-05-24T20:50:25.901Z,4.38
2023-05-24T20:52:52.484Z,3.90
2023-05-24T20:55:19.064Z,3.70
2023-05-24T20:57:45.998Z,5.97
2023-05-24T21:00:13.012Z,6.25
2023-05-24T21:02:39.686Z,5.22
2023-05-24T21:05:06.848Z,5.38
2023-05-24T21:07:33.443Z,4.40
2023-05-24T21:10:00.133Z,5.63
2023-05-24T21:12:26.707Z,5.43
2023-05-24T21:14:53.371Z,4.55
2023-05-24T21:17:20.053Z,4.10
2023-05-24T21:19:46.766Z,4.40
2023-05-24T21:22:13.941Z,4.03
2023-05-24T21:24:40.482Z,4.50
2023-05-24T21:27:07.266Z,4.68
2023-05-24T21:29:34.930Z,4.78
2023-05-24T21:32:01.492Z,4.53
2023-05-24T21:34:28.101Z,4.85
2023-05-24T21:36:54.655Z,4.45
2023-05-24T21:39:21.466Z,4.35
2023-05-24T21:41:48.087Z,4.28
2023-05-24T21:44:14.655Z,4.32
2023-05-24T21:46:41.201Z,4.45
2023-05-24T21:49:07.806Z,4.35
2023-05-24T21:51:34.388Z,4.07
2023-05-24T21:54:00.950Z,4.30
2023-05-24T21:56:27.473Z,4.70
2023-05-24T21:58:54.072Z,3.80
2023-05-24T22:01:20.734Z,4.95
2023-05-24T22:03:47.484Z,4.57
2023-05-24T22:06:14.216Z,4.70
2023-05-24T22:08:40.820Z,4.53
2023-05-24T22:11:10.256Z,4.75
2023-05-24T22:13:36.828Z,4.97
2023-05-24T22:16:03.470Z,4.85
2023-05-24T22:18:30.382Z,4.93
2023-05-24T22:21:08.474Z,4.10
2023-05-24T22:23:35.043Z,4.85
2023-05-24T22:26:01.601Z,4.70
2023-05-24T22:28:28.144Z,3.88
2023-05-24T22:30:54.677Z,5.38
2023-05-24T22:33:21.184Z,4.85
2023-05-24T22:35:47.800Z,4.63
2023-05-24T22:38:14.322Z,4.82
2023-05-24T22:40:40.856Z,4.47
2023-05-24T22:43:07.409Z,4.72
2023-05-24T22:45:33.948Z,6.25
2023-05-24T22:48:00.551Z,5.10
2023-05-24T22:50:27.147Z,4.68
2023-05-24T22:52:53.708Z,5.38
2023-05-24T22:55:20.224Z,5.20
2023-05-24T22:57:46.787Z,5.18
2023-05-24T23:00:13.684Z,5.07
2023-05-24T23:02:40.255Z,5.32
2023-05-24T23:05:07.322Z,5.40
2023-05-24T23:07:33.972Z,5.22
2023-05-24T23:10:00.534Z,5.80
2023-05-24T23:12:27.114Z,6.18
2023-05-24T23:14:53.656Z,5.80
2023-05-24T23:17:20.404Z,5.53
2023-05-24T23:19:47.143Z,5.47
2023-05-24T23:22:14.726Z,5.55
2023-05-24T23:24:41.933Z,6.50
2023-05-24T23:27:09.099Z,5.95
2023-05-24T23:29:35.695Z,5.28
2023-05-24T23:32:02.232Z,5.60
2023-05-24T23:34:28.798Z,4.65
2023-05-24T23:36:55.324Z,4.55
2023-05-24T23:39:21.904Z,4.90
2023-05-24T23:41:48.469Z,5.40
2023-05-24T23:44:15.088Z,4.68
2023-05-24T23:46:41.706Z,5.05
2023-05-24T23:49:08.383Z,5.25
2023-05-24T23:51:34.994Z,4.78
2023-05-24T23:54:01.790Z,5.28
2023-05-24T23:56:28.358Z,5.07
2023-05-24T23:58:54.890Z,4.97
